createdAt,value
2018-09-09T00:02:01.336Z,13.30
2018-09-09T00:04:28.913Z,13.30
2018-09-09T00:06:56.453Z,13.30
2018-09-09T00:09:30.785Z,13.30
2018-09-09T00:11:58.312Z,13.30
2018-09-09T00:14:26.094Z,13.30
2018-09-09T00:16:53.593Z,13.40
2018-09-09T00:19:21.153Z,13.40
2018-09-09T00:21:48.738Z,13.30
2018-09-09T00:24:16.411Z,13.10
2018-09-09T00:26:44.111Z,13.10
2018-09-09T00:29:11.639Z,13.00
2018-09-09T00:31:39.300Z,13.00
2018-09-09T00:34:06.932Z,12.90
2018-09-09T00:36:34.531Z,12.70
2018-09-09T00:39:02.212Z,12.70
2018-09-09T00:41:29.833Z,12.60
2018-09-09T00:43:57.477Z,12.60
2018-09-09T00:46:25.020Z,12.70
2018-09-09T00:48:59.083Z,12.70
2018-09-09T00:52:34.795Z,12.70
2018-09-09T00:55:02.413Z,12.80
2018-09-09T00:57:29.971Z,12.90
2018-09-09T00:59:57.679Z,13.00
2018-09-09T01:02:25.297Z,13.00
2018-09-09T01:04:52.927Z,13.00
2018-09-09T01:07:20.424Z,13.10
2018-09-09T01:09:47.984Z,13.00
2018-09-09T01:12:15.539Z,13.00
2018-09-09T01:14:43.136Z,12.90
2018-09-09T01:17:10.736Z,12.90
2018-09-09T01:19:38.347Z,12.80
2018-09-09T01:22:05.971Z,12.70
2018-09-09T01:24:33.455Z,12.70
2018-09-09T01:27:01.102Z,12.60
2018-09-09T01:29:28.705Z,12.70
2018-09-09T01:31:56.313Z,12.60
2018-09-09T01:34:23.939Z,12.70
2018-09-09T01:36:51.489Z,12.80
2018-09-09T01:39:19.037Z,12.80
2018-09-09T01:41:46.599Z,12.90
2018-09-09T01:44:14.175Z,12.90
2018-09-09T01:46:41.830Z,12.90
2018-09-09T01:49:13.153Z,13.00
2018-09-09T01:51:40.817Z,13.00
2018-09-09T01:54:08.416Z,13.00
2018-09-09T01:56:35.944Z,13.00
2018-09-09T01:59:03.550Z,13.00
2018-09-09T02:01:31.049Z,13.00
2018-09-09T02:03:58.593Z,13.00
2018-09-09T02:06:26.077Z,13.10
2018-09-09T02:08:53.666Z,13.00
2018-09-09T02:11:21.158Z,13.20
2018-09-09T02:13:48.714Z,13.30
2018-09-09T02:16:16.365Z,13.30
2018-09-09T02:18:44.849Z,13.30
2018-09-09T02:21:12.372Z,13.40
2018-09-09T02:23:39.895Z,13.40
2018-09-09T02:26:07.439Z,13.30
2018-09-09T02:28:34.986Z,13.30
2018-09-09T02:31:02.498Z,13.40
2018-09-09T02:33:30.080Z,13.40
2018-09-09T02:35:57.638Z,13.30
2018-09-09T02:38:25.200Z,13.30
2018-09-09T02:40:52.800Z,13.20
2018-09-09T02:43:20.528Z,13.20
2018-09-09T02:45:48.081Z,13.10
2018-09-09T02:48:15.693Z,13.10
2018-09-09T02:50:43.489Z,12.90
2018-09-09T02:53:11.154Z,12.90
2018-09-09T02:55:43.483Z,12.90
2018-09-09T02:58:11.702Z,12.80
2018-09-09T03:00:39.251Z,12.80
2018-09-09T03:03:06.812Z,12.80
2018-09-09T03:05:34.409Z,12.80
2018-09-09T03:08:01.974Z,12.80
2018-09-09T03:10:29.517Z,12.80
2018-09-09T03:13:07.996Z,12.80
2018-09-09T03:15:35.691Z,12.70
2018-09-09T03:18:03.543Z,12.70
2018-09-09T03:20:31.038Z,12.70
2018-09-09T03:22:58.683Z,12.50
2018-09-09T03:25:26.209Z,12.60
2018-09-09T03:27:53.728Z,12.50
2018-09-09T03:30:21.265Z,12.60
2018-09-09T03:32:48.846Z,12.60
2018-09-09T03:35:16.390Z,12.60
2018-09-09T03:37:43.938Z,12.60
2018-09-09T03:40:11.541Z,12.60
2018-09-09T03:42:39.228Z,12.60
2018-09-09T03:48:00.717Z,12.60
2018-09-09T03:50:28.557Z,12.60
2018-09-09T03:53:07.674Z,12.70
2018-09-09T03:55:35.588Z,12.60
2018-09-09T03:58:03.277Z,12.60
2018-09-09T04:00:31.164Z,12.60
2018-09-09T04:02:59.017Z,12.70
2018-09-09T04:05:26.676Z,12.70
2018-09-09T04:07:54.358Z,12.70
2018-09-09T04:10:22.103Z,12.70
2018-09-09T04:12:49.715Z,12.70
2018-09-09T04:15:17.276Z,12.70
2018-09-09T04:17:44.904Z,12.60
2018-09-09T04:20:12.760Z,12.60
2018-09-09T04:22:40.491Z,12.60
2018-09-09T04:25:08.276Z,12.70
2018-09-09T04:27:35.931Z,12.70
2018-09-09T04:30:03.627Z,12.70
2018-09-09T04:32:31.228Z,12.80
2018-09-09T04:34:59.079Z,12.80
2018-09-09T04:37:26.791Z,12.90
2018-09-09T04:39:54.436Z,12.90
2018-09-09T04:42:22.176Z,12.90
2018-09-09T04:44:49.892Z,13.00
2018-09-09T04:47:17.555Z,13.00
2018-09-09T04:49:45.230Z,13.00
2018-09-09T04:52:12.773Z,12.90
2018-09-09T04:54:40.464Z,13.00
2018-09-09T04:57:08.151Z,13.00
2018-09-09T04:59:35.796Z,13.00
2018-09-09T05:02:03.469Z,12.90
2018-09-09T05:04:31.132Z,12.90
2018-09-09T05:06:58.781Z,12.90
2018-09-09T05:09:26.417Z,13.10
2018-09-09T05:11:54.162Z,13.10
2018-09-09T05:14:21.755Z,13.10
2018-09-09T05:16:49.491Z,13.10
2018-09-09T05:19:17.120Z,13.10
2018-09-09T05:21:44.800Z,13.10
2018-09-09T05:24:12.417Z,13.10
2018-09-09T05:26:39.958Z,13.10
2018-09-09T05:29:07.891Z,13.10
2018-09-09T05:31:35.480Z,13.20
2018-09-09T05:34:03.126Z,13.30
2018-09-09T05:36:30.704Z,13.30
2018-09-09T05:38:59.366Z,13.40
2018-09-09T05:41:26.930Z,13.40
2018-09-09T05:43:54.555Z,13.60
2018-09-09T05:46:22.159Z,13.60
2018-09-09T05:48:49.773Z,13.60
2018-09-09T05:51:17.472Z,13.80
2018-09-09T05:53:45.033Z,13.80
2018-09-09T05:56:12.793Z,13.80
2018-09-09T05:58:40.451Z,13.90
2018-09-09T06:01:08.684Z,14.00
2018-09-09T06:03:36.229Z,13.90
2018-09-09T06:06:03.789Z,13.90
2018-09-09T06:08:31.374Z,14.00
2018-09-09T06:10:58.979Z,14.00
2018-09-09T06:13:26.948Z,14.10
2018-09-09T06:15:54.536Z,14.10
2018-09-09T06:18:22.238Z,14.10
2018-09-09T06:20:49.891Z,14.30
2018-09-09T06:23:17.581Z,14.30
2018-09-09T06:25:45.558Z,14.20
2018-09-09T06:28:13.523Z,14.30
2018-09-09T06:30:41.324Z,14.30
2018-09-09T06:33:09.140Z,14.30
2018-09-09T06:35:37.072Z,14.50
2018-09-09T06:38:04.898Z,14.60
2018-09-09T06:40:32.880Z,14.70
2018-09-09T06:43:00.551Z,14.80
2018-09-09T06:45:28.578Z,14.90
2018-09-09T06:47:56.339Z,15.20
2018-09-09T06:50:24.051Z,15.40
2018-09-09T06:52:51.810Z,15.60
2018-09-09T06:55:19.538Z,15.60
2018-09-09T06:57:47.274Z,15.60
2018-09-09T07:00:15.064Z,15.70
2018-09-09T07:02:42.740Z,15.80
2018-09-09T07:05:10.389Z,15.80
2018-09-09T07:07:38.132Z,15.80
2018-09-09T07:10:05.772Z,16.00
2018-09-09T07:12:33.418Z,16.40
2018-09-09T07:15:01.173Z,16.70
2018-09-09T07:17:28.849Z,16.60
2018-09-09T07:19:56.667Z,16.90
2018-09-09T07:22:24.315Z,17.00
2018-09-09T07:24:51.961Z,17.00
2018-09-09T07:27:19.600Z,16.90
2018-09-09T07:29:47.210Z,16.80
2018-09-09T07:32:14.900Z,16.90
2018-09-09T07:34:42.481Z,16.90
2018-09-09T07:37:10.281Z,16.80
2018-09-09T07:39:38.228Z,17.10
2018-09-09T07:42:06.220Z,17.60
2018-09-09T07:44:33.832Z,17.90
2018-09-09T07:47:01.528Z,18.30
2018-09-09T07:49:29.283Z,18.40
2018-09-09T07:51:57.060Z,18.70
2018-09-09T07:54:24.722Z,19.10
2018-09-09T07:56:52.499Z,19.60
2018-09-09T07:59:20.206Z,19.70
2018-09-09T08:01:48.003Z,19.80
2018-09-09T08:04:15.885Z,19.90
2018-09-09T08:06:43.669Z,20.30
2018-09-09T08:09:11.674Z,20.80
2018-09-09T08:11:39.914Z,21.20
2018-09-09T08:14:09.301Z,21.30
2018-09-09T08:16:37.060Z,21.60
2018-09-09T08:19:05.187Z,21.70
2018-09-09T08:21:33.838Z,21.60
2018-09-09T08:24:02.024Z,21.70
2018-09-09T08:26:29.660Z,22.00
2018-09-09T08:28:57.393Z,22.20
2018-09-09T08:31:25.083Z,22.40
2018-09-09T08:33:53.594Z,22.60
2018-09-09T08:36:21.298Z,22.50
2018-09-09T08:38:48.902Z,22.40
2018-09-09T08:41:16.827Z,22.30
2018-09-09T08:43:44.583Z,22.30
2018-09-09T08:46:12.188Z,22.50
2018-09-09T08:48:39.857Z,22.70
2018-09-09T08:51:07.553Z,23.10
2018-09-09T08:53:35.157Z,23.30
2018-09-09T08:56:03.036Z,23.50
2018-09-09T08:58:30.693Z,23.60
2018-09-09T09:00:58.306Z,23.70
2018-09-09T09:03:25.919Z,23.70
2018-09-09T09:05:53.677Z,23.80
2018-09-09T09:08:21.534Z,23.70
2018-09-09T09:10:49.301Z,23.50
2018-09-09T09:13:17.593Z,23.50
2018-09-09T09:15:45.609Z,23.50
2018-09-09T09:18:13.293Z,23.40
2018-09-09T09:20:40.911Z,23.20
2018-09-09T09:23:08.567Z,23.10
2018-09-09T09:25:40.012Z,23.20
2018-09-09T09:28:07.656Z,23.20
2018-09-09T09:30:35.533Z,23.20
2018-09-09T09:33:03.240Z,23.10
2018-09-09T09:35:36.544Z,23.10
2018-09-09T09:38:04.188Z,23.10
2018-09-09T09:40:31.829Z,23.30
2018-09-09T09:42:59.475Z,23.30
2018-09-09T09:45:27.182Z,23.40
2018-09-09T09:47:55.041Z,23.40
2018-09-09T09:50:22.675Z,23.40
2018-09-09T09:52:50.235Z,23.50
2018-09-09T09:55:17.887Z,23.50
2018-09-09T09:57:45.498Z,23.70
2018-09-09T10:00:18.824Z,23.90
2018-09-09T10:02:46.531Z,23.90
2018-09-09T10:05:15.027Z,24.00
2018-09-09T10:07:42.679Z,24.10
2018-09-09T10:10:10.360Z,23.90
2018-09-09T10:12:38.769Z,23.80
2018-09-09T10:15:06.543Z,23.60
2018-09-09T10:17:34.257Z,23.70
2018-09-09T10:20:01.947Z,23.90
2018-09-09T10:22:29.542Z,24.00
2018-09-09T10:24:57.263Z,23.90
2018-09-09T10:27:24.845Z,23.90
2018-09-09T10:29:53.051Z,24.00
2018-09-09T10:32:20.977Z,24.00
2018-09-09T10:34:48.902Z,23.90
2018-09-09T10:37:17.009Z,23.90
2018-09-09T10:39:45.068Z,23.80
2018-09-09T10:42:13.185Z,23.80
2018-09-09T10:44:41.191Z,23.80
2018-09-09T10:47:09.345Z,23.80
2018-09-09T10:49:37.397Z,23.70
2018-09-09T10:52:05.506Z,23.70
2018-09-09T10:54:33.510Z,23.60
2018-09-09T10:57:01.576Z,23.70
2018-09-09T10:59:29.686Z,23.90
2018-09-09T11:01:57.825Z,23.90
2018-09-09T11:04:25.884Z,23.90
2018-09-09T11:06:55.317Z,23.90
2018-09-09T11:09:23.510Z,23.90
2018-09-09T11:11:51.435Z,23.80
2018-09-09T11:14:19.427Z,23.90
2018-09-09T11:16:47.383Z,23.80
2018-09-09T11:19:15.258Z,23.70
2018-09-09T11:21:43.204Z,23.60
2018-09-09T11:24:11.207Z,23.60
2018-09-09T11:26:39.042Z,23.60
2018-09-09T11:29:07.041Z,23.50
2018-09-09T11:31:34.983Z,23.50
2018-09-09T11:34:03.068Z,23.50
2018-09-09T11:36:30.966Z,23.50
2018-09-09T11:38:58.946Z,23.60
2018-09-09T11:41:26.914Z,23.60
2018-09-09T11:43:54.904Z,23.70
2018-09-09T11:46:22.888Z,23.70
2018-09-09T11:48:50.896Z,23.80
2018-09-09T11:51:19.259Z,23.80
2018-09-09T11:53:47.248Z,23.90
2018-09-09T11:56:15.276Z,24.00
2018-09-09T11:58:43.305Z,24.00
2018-09-09T12:01:11.376Z,24.30
2018-09-09T12:03:39.440Z,24.40
2018-09-09T12:06:07.429Z,24.50
2018-09-09T12:08:36.446Z,24.60
2018-09-09T12:11:04.827Z,24.70
2018-09-09T12:13:32.920Z,25.00
2018-09-09T12:16:01.028Z,25.00
2018-09-09T12:18:28.996Z,24.90
2018-09-09T12:20:57.038Z,24.80
2018-09-09T12:23:25.102Z,24.80
2018-09-09T12:25:53.141Z,24.70
2018-09-09T12:28:21.052Z,24.60
2018-09-09T12:30:49.083Z,24.40
2018-09-09T12:33:17.028Z,24.40
2018-09-09T12:35:45.035Z,24.50
2018-09-09T12:38:12.889Z,24.50
2018-09-09T12:40:41.043Z,24.40
2018-09-09T12:43:14.532Z,24.30
2018-09-09T12:45:49.337Z,24.30
2018-09-09T12:48:23.008Z,24.20
2018-09-09T12:50:50.949Z,24.40
2018-09-09T12:53:18.928Z,24.40
2018-09-09T12:55:46.867Z,24.40
2018-09-09T12:58:14.784Z,24.30
2018-09-09T13:00:42.712Z,24.10
2018-09-09T13:03:10.800Z,24.00
2018-09-09T13:05:39.084Z,23.90
2018-09-09T13:08:07.329Z,24.00
2018-09-09T13:10:35.371Z,24.00
2018-09-09T13:13:08.921Z,24.00
2018-09-09T13:15:37.316Z,24.00
2018-09-09T13:18:05.355Z,24.00
2018-09-09T13:20:33.214Z,23.90
2018-09-09T13:23:01.125Z,24.00
2018-09-09T13:25:29.088Z,24.10
2018-09-09T13:27:57.097Z,24.10
2018-09-09T13:30:25.113Z,24.00
2018-09-09T13:32:53.038Z,24.00
2018-09-09T13:35:21.274Z,24.10
2018-09-09T13:37:49.812Z,24.00
2018-09-09T13:40:18.120Z,23.90
2018-09-09T13:42:46.580Z,24.00
2018-09-09T13:45:14.535Z,24.00
2018-09-09T13:47:42.530Z,24.00
2018-09-09T13:50:10.438Z,24.00
2018-09-09T13:52:38.488Z,23.90
2018-09-09T13:55:07.403Z,23.90
2018-09-09T13:57:35.553Z,23.90
2018-09-09T14:00:03.797Z,24.00
2018-09-09T14:02:31.701Z,24.00
2018-09-09T14:04:59.690Z,24.10
2018-09-09T14:07:27.721Z,24.00
2018-09-09T14:09:55.767Z,24.00
2018-09-09T14:12:23.784Z,24.00
2018-09-09T14:14:53.182Z,23.90
2018-09-09T14:17:21.447Z,24.00
2018-09-09T14:19:49.554Z,24.20
2018-09-09T14:22:18.027Z,24.30
2018-09-09T14:24:46.098Z,24.50
2018-09-09T14:27:14.921Z,24.60
2018-09-09T14:29:42.931Z,24.60
2018-09-09T14:32:11.455Z,24.50
2018-09-09T14:34:39.624Z,24.30
2018-09-09T14:37:07.651Z,23.90
2018-09-09T14:39:35.688Z,23.80
2018-09-09T14:42:03.825Z,23.70
2018-09-09T14:44:32.041Z,23.80
2018-09-09T14:47:00.085Z,23.70
2018-09-09T14:49:28.081Z,23.50
2018-09-09T14:51:56.142Z,23.40
2018-09-09T14:54:24.322Z,23.50
2018-09-09T14:56:52.380Z,23.40
2018-09-09T14:59:20.592Z,23.40
2018-09-09T15:01:48.681Z,23.50
2018-09-09T15:04:17.013Z,23.50
2018-09-09T15:06:50.550Z,23.50
2018-09-09T15:09:18.451Z,23.50
2018-09-09T15:11:46.408Z,23.40
2018-09-09T15:14:14.266Z,23.40
2018-09-09T15:16:42.433Z,23.40
2018-09-09T15:19:10.367Z,23.50
2018-09-09T15:21:38.368Z,23.60
2018-09-09T15:24:06.658Z,23.80
2018-09-09T15:26:34.627Z,23.80
2018-09-09T15:29:02.557Z,23.80
2018-09-09T15:31:30.579Z,23.90
2018-09-09T15:33:58.573Z,23.80
2018-09-09T15:36:26.574Z,23.70
2018-09-09T15:38:54.462Z,23.70
2018-09-09T15:41:22.506Z,23.70
2018-09-09T15:43:50.547Z,23.60
2018-09-09T15:46:18.622Z,23.60
2018-09-09T15:48:46.620Z,23.50
2018-09-09T15:51:14.576Z,23.40
2018-09-09T15:53:42.497Z,23.40
2018-09-09T15:56:10.503Z,23.50
2018-09-09T15:58:38.441Z,23.40
2018-09-09T16:01:06.389Z,23.30
2018-09-09T16:03:34.462Z,23.20
2018-09-09T16:06:02.461Z,23.10
2018-09-09T16:08:30.380Z,22.90
2018-09-09T16:10:58.284Z,23.00
2018-09-09T16:13:26.310Z,23.00
2018-09-09T16:15:54.219Z,22.90
2018-09-09T16:18:22.224Z,23.00
2018-09-09T16:20:50.268Z,23.00
2018-09-09T16:23:18.402Z,23.10
2018-09-09T16:25:46.368Z,23.00
2018-09-09T16:28:14.239Z,23.00
2018-09-09T16:30:42.169Z,22.90
2018-09-09T16:33:09.999Z,22.90
2018-09-09T16:35:37.867Z,22.90
2018-09-09T16:38:05.794Z,22.90
2018-09-09T16:40:33.926Z,22.80
2018-09-09T16:43:01.858Z,22.70
2018-09-09T16:45:29.952Z,22.60
2018-09-09T16:47:57.844Z,22.50
2018-09-09T16:50:25.777Z,22.40
2018-09-09T16:52:53.784Z,22.20
2018-09-09T16:55:21.530Z,22.20
2018-09-09T16:57:49.439Z,22.10
2018-09-09T17:00:17.262Z,22.00
2018-09-09T17:02:45.175Z,21.90
2018-09-09T17:05:13.178Z,21.80
2018-09-09T17:07:41.109Z,21.70
2018-09-09T17:10:09.027Z,21.70
2018-09-09T17:12:37.012Z,21.60
2018-09-09T17:15:05.177Z,21.50
2018-09-09T17:17:33.089Z,21.50
2018-09-09T17:20:01.095Z,21.30
2018-09-09T17:22:29.135Z,21.20
2018-09-09T17:24:56.998Z,21.10
2018-09-09T17:27:25.077Z,21.00
2018-09-09T17:29:53.075Z,20.90
2018-09-09T17:32:21.048Z,20.80
2018-09-09T17:34:49.188Z,20.70
2018-09-09T17:37:17.823Z,20.60
2018-09-09T17:39:45.800Z,20.50
2018-09-09T17:42:13.812Z,20.40
2018-09-09T17:44:41.746Z,20.20
2018-09-09T17:47:09.667Z,20.10
2018-09-09T17:49:37.562Z,19.90
2018-09-09T17:52:05.794Z,19.80
2018-09-09T17:54:33.831Z,19.70
2018-09-09T17:57:08.665Z,19.60
2018-09-09T17:59:36.668Z,19.40
2018-09-09T18:02:04.527Z,19.40
2018-09-09T18:04:32.877Z,19.30
2018-09-09T18:07:00.872Z,19.20
2018-09-09T18:09:28.894Z,19.10
2018-09-09T18:11:57.274Z,18.90
2018-09-09T18:14:25.342Z,18.80
2018-09-09T18:16:53.385Z,18.70
2018-09-09T18:19:21.361Z,18.60
2018-09-09T18:21:49.401Z,18.50
2018-09-09T18:24:17.365Z,18.40
2018-09-09T18:26:45.454Z,18.40
2018-09-09T18:29:13.386Z,18.30
2018-09-09T18:31:41.304Z,18.30
2018-09-09T18:34:09.362Z,18.20
2018-09-09T18:36:37.411Z,18.20
2018-09-09T18:39:07.396Z,18.20
2018-09-09T18:41:35.375Z,18.20
2018-09-09T18:44:03.724Z,18.20
2018-09-09T18:46:31.779Z,18.10
2018-09-09T18:48:59.785Z,18.00
2018-09-09T18:51:27.693Z,18.00
2018-09-09T18:53:55.716Z,17.90
2018-09-09T18:56:24.025Z,17.80
2018-09-09T18:58:51.981Z,17.80
2018-09-09T19:01:20.005Z,17.80
2018-09-09T19:03:47.938Z,17.80
2018-09-09T19:06:16.249Z,17.70
2018-09-09T19:08:44.349Z,17.60
2018-09-09T19:11:12.632Z,17.60
2018-09-09T19:13:40.745Z,17.60
2018-09-09T19:16:08.950Z,17.40
2018-09-09T19:18:36.937Z,17.40
2018-09-09T19:21:05.228Z,17.40
2018-09-09T19:23:33.247Z,17.30
2018-09-09T19:26:01.237Z,17.30
2018-09-09T19:28:29.341Z,17.20
2018-09-09T19:30:57.316Z,17.10
2018-09-09T19:33:25.552Z,17.10
2018-09-09T19:35:55.485Z,17.10
2018-09-09T19:38:23.446Z,17.10
2018-09-09T19:40:51.414Z,17.10
2018-09-09T19:43:19.432Z,17.10
2018-09-09T19:45:47.432Z,17.10
2018-09-09T19:50:52.836Z,16.90
2018-09-09T19:53:20.601Z,16.80
2018-09-09T19:55:48.348Z,16.70
2018-09-09T19:58:16.234Z,16.60
2018-09-09T20:00:44.130Z,16.60
2018-09-09T20:03:11.904Z,16.40
2018-09-09T20:05:39.858Z,16.30
2018-09-09T20:08:08.004Z,16.30
2018-09-09T20:10:35.756Z,16.30
2018-09-09T20:13:03.861Z,16.30
2018-09-09T20:15:31.570Z,16.40
2018-09-09T20:17:59.286Z,16.30
2018-09-09T20:20:27.615Z,16.30
2018-09-09T20:25:34.495Z,16.30
2018-09-09T20:28:02.250Z,16.20
2018-09-09T20:30:30.116Z,16.10
2018-09-09T20:32:57.999Z,16.10
2018-09-09T20:35:25.818Z,16.00
2018-09-09T20:37:53.523Z,15.90
2018-09-09T20:40:21.326Z,15.70
2018-09-09T20:42:49.356Z,15.60
2018-09-09T20:45:17.136Z,15.60
2018-09-09T20:47:44.989Z,15.50
2018-09-09T20:50:12.709Z,15.40
2018-09-09T20:52:40.393Z,15.40
2018-09-09T20:55:08.166Z,15.30
2018-09-09T20:57:35.838Z,15.30
2018-09-09T21:00:03.699Z,15.30
2018-09-09T21:02:31.582Z,15.30
2018-09-09T21:04:59.322Z,15.30
2018-09-09T21:07:27.013Z,15.20
2018-09-09T21:09:55.132Z,15.10
2018-09-09T21:12:23.122Z,15.00
2018-09-09T21:14:50.846Z,15.10
2018-09-09T21:17:18.774Z,15.00
2018-09-09T21:19:46.556Z,15.00
2018-09-09T21:22:14.244Z,14.90
2018-09-09T21:24:42.347Z,14.90
2018-09-09T21:27:10.099Z,14.80
2018-09-09T21:29:37.906Z,14.80
2018-09-09T21:32:05.851Z,14.80
2018-09-09T21:34:33.536Z,14.80
2018-09-09T21:37:01.226Z,14.70
2018-09-09T21:39:28.868Z,14.60
2018-09-09T21:41:56.904Z,14.60
2018-09-09T21:44:24.611Z,14.60
2018-09-09T21:46:52.965Z,14.50
2018-09-09T21:49:20.693Z,14.50
2018-09-09T21:51:48.450Z,14.40
2018-09-09T21:54:16.273Z,14.30
2018-09-09T21:56:44.078Z,14.30
2018-09-09T21:59:11.816Z,14.30
2018-09-09T22:01:45.005Z,14.20
2018-09-09T22:04:12.723Z,14.10
2018-09-09T22:06:40.610Z,14.10
2018-09-09T22:09:09.425Z,14.00
2018-09-09T22:11:38.370Z,13.90
2018-09-09T22:14:06.496Z,13.90
2018-09-09T22:16:34.447Z,13.90
2018-09-09T22:19:03.095Z,13.90
2018-09-09T22:21:31.095Z,13.90
2018-09-09T22:23:58.972Z,13.90
2018-09-09T22:26:27.007Z,13.80
2018-09-09T22:28:55.023Z,13.80
2018-09-09T22:31:23.045Z,13.80
2018-09-09T22:33:50.938Z,13.80
2018-09-09T22:36:19.018Z,13.80
2018-09-09T22:38:47.037Z,13.80
2018-09-09T22:41:14.967Z,13.80
2018-09-09T22:43:43.001Z,13.70
2018-09-09T22:46:10.969Z,13.70
2018-09-09T22:48:38.904Z,13.70
2018-09-09T22:51:06.881Z,13.60
2018-09-09T22:53:35.002Z,13.60
2018-09-09T22:56:02.961Z,13.60
2018-09-09T22:58:30.893Z,13.60
2018-09-09T23:00:58.955Z,13.60
2018-09-09T23:03:26.946Z,13.60
2018-09-09T23:05:54.930Z,13.60
2018-09-09T23:08:23.100Z,13.60
2018-09-09T23:10:51.076Z,13.60
2018-09-09T23:13:19.059Z,13.60
2018-09-09T23:15:47.049Z,13.60
2018-09-09T23:18:15.064Z,13.50
2018-09-09T23:20:43.197Z,13.40
2018-09-09T23:23:11.196Z,13.40
2018-09-09T23:25:39.293Z,13.30
2018-09-09T23:28:07.336Z,13.20
2018-09-09T23:30:35.303Z,13.20
2018-09-09T23:33:03.304Z,13.20
2018-09-09T23:35:31.246Z,13.10
2018-09-09T23:37:59.152Z,13.10
2018-09-09T23:40:27.084Z,13.20
2018-09-09T23:42:55.101Z,13.40
2018-09-09T23:45:23.082Z,13.40
2018-09-09T23:47:51.192Z,13.40
2018-09-09T23:50:19.184Z,13.40
2018-09-09T23:52:47.077Z,13.30
2018-09-09T23:55:15.053Z,13.20
2018-09-09T23:57:42.983Z,13.10
